Hillsdale, WY (82060)

6:01 PM MST on December 26, 2014 (GMT -0700)
WB7GR | Change Station
CLOSE
Current Station
Personal Weather Station
Location: Burns, WY
Elevation: 5788 ft
Nearby Weather Stations

Elev 5788 ft 41.15 °N, 104.54 °W | Updated 28 seconds ago

Snow
Snow
13.0 °F
Feels Like 5 °F
N
5.0
Wind Variable Wind from NW
Gusts 16.0 mph

Today
High -- | Low -- °F
--% Chance of Precip.
Yesterday
High -- | Low -- °F
Precip. -- in
7:22 AM 4:35 PM
Waxing Crescent, 31% visible
Pressure 30.19 in
Visibility 1.2 miles
Clouds Overcast 3300 ft
Windchill 5 °F
Dew Point 11 °F
Humidity 90%
Rainfall 0.00 in
Snow Depth Not available.
UV 0 out of 12
Pollen .10 out of 12
Air Quality Not available.
Flu Activity Not available.
METAR KCYS 270053Z 34006KT 1 1/4SM -SN OVC033 M11/M13 A2994 RMK AO2 SFC VIS 2 1/2 SLP223 P0001 T11061133

More Conditions Fewer Conditions

Pressure 30.19 in
Visibility 1.2 miles
Clouds Overcast 3300 ft
Windchill 5 °F
Dew Point 11 °F
Humidity 90%
Rainfall 0.00 in
Snow Depth Not available.
UV 0 out of 12
Pollen .10 out of 12
Air Quality Not available.
Flu Activity Not available.
METAR KCYS 270053Z 34006KT 1 1/4SM -SN OVC033 M11/M13 A2994 RMK AO2 SFC VIS 2 1/2 SLP223 P0001 T11061133

More Conditions Fewer Conditions

10-Day Weather Forecast

Almanac

Astronomy

Dec. 26, 2014 Rise Set
Actual Time
Civil Twilight
Nautical Twilight
Astronomical Twilight
Moon
Length of Visible Light
Length of Day
Tomorrow will be .
, % of the Moon is Illuminated

Today's Extremes

State Highs State Lows

Community

WunderPhotos

Upload Photos

1,780,800 photos uploaded!

WunderBlogs® & News

Nearby

Air Quality

  Air Quality AQ Index Pollutant
Not available.

Snow Depth

Station Depth Elevation

Earthquake Activity

City Distance Mag. Time & Date
Minimum magnitude displayed is 2.5.

Coastal Water Temperatures

Place Temperature

Nearby Weather Stations